createdAt,value
2022-11-16T00:01:45.261Z,8.30
2022-11-16T00:04:12.484Z,8.28
2022-11-16T00:06:40.028Z,8.29
2022-11-16T00:09:22.335Z,8.24
2022-11-16T00:11:56.604Z,8.34
2022-11-16T00:14:26.432Z,8.15
2022-11-16T00:16:53.213Z,8.24
2022-11-16T00:19:20.221Z,8.16
2022-11-16T00:21:47.160Z,8.25
2022-11-16T00:24:16.261Z,8.29
2022-11-16T00:26:43.784Z,8.27
2022-11-16T00:29:21.209Z,8.30
2022-11-16T00:31:48.472Z,8.26
2022-11-16T00:34:16.181Z,8.23
2022-11-16T00:36:43.433Z,8.30
2022-11-16T00:39:17.629Z,8.29
2022-11-16T00:41:45.078Z,8.30
2022-11-16T00:44:12.360Z,8.29
2022-11-16T00:46:40.057Z,8.30
2022-11-16T00:49:07.078Z,8.23
2022-11-16T00:51:36.122Z,8.32
2022-11-16T00:54:03.993Z,8.34
2022-11-16T00:56:30.965Z,8.22
2022-11-16T00:58:57.712Z,8.29
2022-11-16T01:01:24.694Z,8.31
2022-11-16T01:03:51.862Z,8.29
2022-11-16T01:06:18.772Z,8.22
2022-11-16T01:08:45.827Z,8.30
2022-11-16T01:11:36.192Z,8.22
2022-11-16T01:14:06.776Z,8.35
2022-11-16T01:16:33.810Z,8.34
2022-11-16T01:19:00.636Z,8.35
2022-11-16T01:21:27.918Z,8.28
2022-11-16T01:23:57.134Z,8.39
2022-11-16T01:26:25.124Z,8.39
2022-11-16T01:28:52.497Z,8.25
2022-11-16T01:31:19.589Z,8.36
2022-11-16T01:33:46.350Z,8.28
2022-11-16T01:36:15.094Z,8.36
2022-11-16T01:38:46.972Z,8.42
2022-11-16T01:41:24.001Z,8.27
2022-11-16T01:43:59.996Z,8.43
2022-11-16T01:46:28.376Z,8.31
2022-11-16T01:49:12.487Z,8.34
2022-11-16T01:51:42.969Z,8.34
2022-11-16T01:54:13.258Z,8.28
2022-11-16T01:56:44.721Z,8.39
2022-11-16T01:59:13.546Z,8.41
2022-11-16T02:01:40.897Z,8.20
2022-11-16T02:04:11.400Z,8.26
2022-11-16T02:06:49.312Z,8.38
2022-11-16T02:09:58.415Z,8.33
2022-11-16T02:12:52.501Z,8.35
2022-11-16T02:15:42.733Z,8.21
2022-11-16T02:18:41.423Z,8.33
2022-11-16T02:21:29.618Z,8.24
2022-11-16T02:24:43.257Z,8.33
2022-11-16T02:27:34.349Z,8.31
2022-11-16T02:30:03.392Z,8.23
2022-11-16T02:32:37.358Z,8.33
2022-11-16T02:35:19.280Z,8.31
2022-11-16T02:37:54.640Z,8.36
2022-11-16T02:40:24.298Z,8.37
2022-11-16T02:43:10.198Z,8.28
2022-11-16T02:45:45.997Z,8.27
2022-11-16T02:48:20.417Z,8.30
2022-11-16T02:50:49.068Z,8.32
2022-11-16T02:53:15.963Z,8.29
2022-11-16T02:55:42.709Z,8.35
2022-11-16T02:58:14.986Z,8.36
2022-11-16T03:00:54.915Z,8.23
2022-11-16T03:03:24.512Z,8.39
2022-11-16T03:05:58.598Z,8.33
2022-11-16T03:08:31.679Z,8.27
2022-11-16T03:11:22.996Z,8.32
2022-11-16T03:13:51.256Z,8.28
2022-11-16T03:16:28.552Z,8.37
2022-11-16T03:18:58.386Z,8.43
2022-11-16T03:21:37.458Z,8.45
2022-11-16T03:24:05.252Z,8.48
2022-11-16T03:26:49.756Z,8.43
2022-11-16T03:29:31.109Z,8.45
2022-11-16T03:32:12.953Z,8.56
2022-11-16T03:34:49.956Z,8.54
2022-11-16T03:37:16.849Z,8.54
2022-11-16T03:39:44.862Z,8.58
2022-11-16T03:42:16.688Z,8.55
2022-11-16T03:44:46.777Z,8.56
2022-11-16T03:47:13.919Z,8.64
2022-11-16T03:49:45.678Z,8.56
2022-11-16T03:52:17.609Z,8.46
2022-11-16T03:54:44.846Z,8.55
2022-11-16T03:57:15.714Z,8.59
2022-11-16T03:59:46.008Z,8.60
2022-11-16T04:02:13.449Z,8.55
2022-11-16T04:04:58.921Z,8.69
2022-11-16T04:07:45.108Z,8.66
2022-11-16T04:10:30.923Z,8.73
2022-11-16T04:13:17.233Z,8.70
2022-11-16T04:16:02.618Z,8.88
2022-11-16T04:18:48.214Z,8.82
2022-11-16T04:21:56.771Z,8.92
2022-11-16T04:24:27.442Z,8.95
2022-11-16T04:27:23.049Z,8.99
2022-11-16T04:29:49.945Z,8.98
2022-11-16T04:32:35.680Z,8.99
2022-11-16T04:35:21.041Z,9.02
2022-11-16T04:37:50.497Z,9.07
2022-11-16T04:40:22.040Z,9.09
2022-11-16T04:42:54.291Z,9.12
2022-11-16T04:45:40.150Z,9.16
2022-11-16T04:48:07.535Z,9.10
2022-11-16T04:50:34.759Z,9.21
2022-11-16T04:53:01.691Z,9.20
2022-11-16T04:55:28.456Z,9.12
2022-11-16T04:57:55.619Z,9.18
2022-11-16T05:00:22.871Z,9.16
2022-11-16T05:02:49.725Z,9.19
2022-11-16T05:05:16.849Z,9.22
2022-11-16T05:07:44.016Z,9.20
2022-11-16T05:10:11.781Z,9.26
2022-11-16T05:12:39.031Z,9.19
2022-11-16T05:15:07.280Z,9.23
2022-11-16T05:17:34.368Z,9.18
2022-11-16T05:20:19.888Z,9.11
2022-11-16T05:22:56.539Z,9.10
2022-11-16T05:25:23.302Z,9.14
2022-11-16T05:27:50.102Z,9.19
2022-11-16T05:30:17.213Z,9.16
2022-11-16T05:32:44.165Z,9.13
2022-11-16T05:35:10.919Z,9.07
2022-11-16T05:37:37.684Z,9.09
2022-11-16T05:40:05.431Z,9.07
2022-11-16T05:42:32.195Z,9.01
2022-11-16T05:44:58.900Z,9.02
2022-11-16T05:47:25.684Z,9.07
2022-11-16T05:49:52.375Z,9.02
2022-11-16T05:52:19.149Z,8.89
2022-11-16T05:54:45.881Z,8.89
2022-11-16T05:57:12.611Z,8.84
2022-11-16T05:59:39.341Z,8.87
2022-11-16T06:02:06.063Z,8.86
2022-11-16T06:04:33.516Z,8.82
2022-11-16T06:07:00.293Z,8.81
2022-11-16T06:09:27.088Z,8.72
2022-11-16T06:11:53.789Z,8.74
2022-11-16T06:14:20.543Z,8.70
2022-11-16T06:16:47.293Z,8.65
2022-11-16T06:19:13.991Z,8.57
2022-11-16T06:21:40.808Z,8.51
2022-11-16T06:24:09.536Z,8.52
2022-11-16T06:26:37.143Z,8.50
2022-11-16T06:29:04.865Z,8.49
2022-11-16T06:31:32.060Z,8.42
2022-11-16T06:33:58.777Z,8.43
2022-11-16T06:36:26.552Z,8.38
2022-11-16T06:38:53.312Z,8.24
2022-11-16T06:41:20.253Z,8.29
2022-11-16T06:43:46.932Z,8.23
2022-11-16T06:46:13.832Z,8.13
2022-11-16T06:48:40.676Z,8.15
2022-11-16T06:51:07.466Z,8.08
2022-11-16T06:53:34.305Z,8.08
2022-11-16T06:56:06.212Z,8.05
2022-11-16T06:58:33.885Z,8.02
2022-11-16T07:01:08.744Z,7.97
2022-11-16T07:03:35.657Z,7.91
2022-11-16T07:06:11.666Z,7.86
2022-11-16T07:08:39.083Z,7.79
2022-11-16T07:11:09.697Z,7.70
2022-11-16T07:13:38.679Z,7.70
2022-11-16T07:16:07.787Z,7.62
2022-11-16T07:18:37.041Z,7.62
2022-11-16T07:21:13.749Z,7.60
2022-11-16T07:23:41.293Z,7.53
2022-11-16T07:26:10.422Z,7.48
2022-11-16T07:28:38.351Z,7.45
2022-11-16T07:31:14.502Z,7.43
2022-11-16T07:33:41.343Z,7.33
2022-11-16T07:36:18.665Z,7.42
2022-11-16T07:38:45.525Z,7.45
2022-11-16T07:41:16.767Z,7.45
2022-11-16T07:43:47.230Z,7.39
2022-11-16T07:46:51.394Z,7.36
2022-11-16T07:49:13.376Z,7.34
2022-11-16T07:51:40.114Z,7.36
2022-11-16T07:54:06.879Z,7.43
2022-11-16T07:56:33.876Z,7.45
2022-11-16T07:59:01.619Z,7.39
2022-11-16T08:01:28.403Z,7.46
2022-11-16T08:03:55.236Z,7.59
2022-11-16T08:06:25.852Z,7.60
2022-11-16T08:08:58.004Z,7.63
2022-11-16T08:11:26.067Z,7.67
2022-11-16T08:13:52.840Z,7.79
2022-11-16T08:16:22.426Z,7.88
2022-11-16T08:18:49.351Z,8.06
2022-11-16T08:21:18.531Z,8.12
2022-11-16T08:23:46.160Z,8.28
2022-11-16T08:26:16.348Z,8.37
2022-11-16T08:28:46.167Z,8.49
2022-11-16T08:31:21.099Z,8.49
2022-11-16T08:33:51.968Z,8.52
2022-11-16T08:36:19.188Z,8.60
2022-11-16T08:38:48.596Z,8.77
2022-11-16T08:41:17.114Z,8.62
2022-11-16T08:43:47.117Z,8.82
2022-11-16T08:46:14.924Z,8.71
2022-11-16T08:48:42.041Z,8.90
2022-11-16T08:51:20.828Z,8.81
2022-11-16T08:53:49.516Z,8.76
2022-11-16T08:56:18.589Z,8.84
2022-11-16T08:58:52.517Z,9.05
2022-11-16T09:01:25.502Z,9.07
2022-11-16T09:03:53.307Z,9.25
2022-11-16T09:06:20.752Z,9.14
2022-11-16T09:08:47.946Z,9.24
2022-11-16T09:11:18.812Z,9.31
2022-11-16T09:13:47.677Z,9.44
2022-11-16T09:16:17.601Z,9.60
2022-11-16T09:18:48.356Z,9.53
2022-11-16T09:21:27.424Z,9.42
2022-11-16T09:23:55.749Z,9.71
2022-11-16T09:26:23.981Z,9.71
2022-11-16T09:29:13.373Z,9.81
2022-11-16T09:31:40.637Z,9.97
2022-11-16T09:34:07.966Z,10.27
2022-11-16T09:36:35.371Z,10.40
2022-11-16T09:39:28.935Z,10.51
2022-11-16T09:42:44.979Z,10.89
2022-11-16T09:45:25.388Z,11.05
2022-11-16T09:47:57.717Z,10.99
2022-11-16T09:50:42.806Z,11.03
2022-11-16T09:53:44.516Z,11.32
2022-11-16T09:56:22.382Z,11.37
2022-11-16T09:59:18.410Z,11.39
2022-11-16T10:01:53.005Z,11.21
2022-11-16T10:04:58.834Z,11.13
2022-11-16T10:07:41.988Z,10.94
2022-11-16T10:10:25.797Z,11.06
2022-11-16T10:13:10.588Z,11.13
2022-11-16T10:15:53.865Z,11.40
2022-11-16T10:18:47.534Z,11.54
2022-11-16T10:21:44.027Z,11.61
2022-11-16T10:24:26.001Z,11.65
2022-11-16T10:27:19.262Z,11.69
2022-11-16T10:30:02.117Z,11.64
2022-11-16T10:32:44.971Z,11.68
2022-11-16T10:35:11.891Z,11.72
2022-11-16T10:37:45.828Z,11.80
2022-11-16T10:40:29.228Z,11.85
2022-11-16T10:43:16.038Z,11.87
2022-11-16T10:46:19.809Z,11.98
2022-11-16T10:49:07.893Z,12.07
2022-11-16T10:51:34.894Z,12.09
2022-11-16T10:54:01.729Z,12.21
2022-11-16T10:56:32.551Z,12.29
2022-11-16T10:59:08.170Z,12.29
2022-11-16T11:01:43.567Z,12.27
2022-11-16T11:04:24.750Z,12.26
2022-11-16T11:07:23.770Z,12.26
2022-11-16T11:09:54.588Z,12.20
2022-11-16T11:12:40.573Z,11.95
2022-11-16T11:15:27.686Z,12.04
2022-11-16T11:18:16.044Z,12.11
2022-11-16T11:20:47.656Z,12.12
2022-11-16T11:23:19.209Z,12.22
2022-11-16T11:25:56.387Z,12.32
2022-11-16T11:28:38.461Z,12.55
2022-11-16T11:31:25.936Z,12.80
2022-11-16T11:33:59.949Z,12.80
2022-11-16T11:36:43.178Z,12.77
2022-11-16T11:39:12.522Z,12.74
2022-11-16T11:41:45.018Z,12.69
2022-11-16T11:44:20.570Z,12.77
2022-11-16T11:49:52.337Z,12.93
2022-11-16T11:52:34.721Z,13.11
2022-11-16T11:55:03.493Z,13.17
2022-11-16T11:57:33.420Z,13.30
2022-11-16T12:00:02.117Z,13.47
2022-11-16T12:02:39.941Z,13.67
2022-11-16T12:05:51.461Z,13.87
2022-11-16T12:08:45.323Z,13.90
2022-11-16T12:11:22.100Z,14.02
2022-11-16T12:14:00.922Z,14.09
2022-11-16T12:16:39.463Z,14.12
2022-11-16T12:19:15.324Z,14.21
2022-11-16T12:22:13.379Z,14.09
2022-11-16T12:25:01.996Z,14.16
2022-11-16T12:28:08.787Z,14.19
2022-11-16T12:31:01.329Z,13.97
2022-11-16T12:33:53.112Z,13.87
2022-11-16T12:36:38.809Z,13.67
2022-11-16T12:40:10.645Z,13.66
2022-11-16T12:42:42.230Z,13.65
2022-11-16T12:45:18.529Z,13.60
2022-11-16T12:48:10.432Z,13.50
2022-11-16T12:51:31.858Z,13.35
2022-11-16T12:54:29.325Z,13.35
2022-11-16T12:57:32.843Z,13.19
2022-11-16T13:00:17.020Z,13.24
2022-11-16T13:03:13.692Z,13.23
2022-11-16T13:05:45.402Z,13.20
2022-11-16T13:08:57.680Z,13.18
2022-11-16T13:11:31.077Z,13.33
2022-11-16T13:14:05.971Z,13.37
2022-11-16T13:16:32.783Z,13.36
2022-11-16T13:19:04.328Z,13.49
2022-11-16T13:22:02.854Z,13.80
2022-11-16T13:24:38.331Z,13.95
2022-11-16T13:27:27.369Z,14.09
2022-11-16T13:30:09.032Z,14.28
2022-11-16T13:33:04.416Z,14.46
2022-11-16T13:35:31.464Z,14.63
2022-11-16T13:37:58.220Z,14.80
2022-11-16T13:40:31.783Z,15.08
2022-11-16T13:43:04.346Z,15.21
2022-11-16T13:45:40.667Z,15.24
2022-11-16T13:48:22.463Z,15.36
2022-11-16T13:51:03.534Z,15.28
2022-11-16T13:56:28.357Z,15.16
2022-11-16T13:58:57.397Z,15.11
2022-11-16T14:01:24.317Z,14.98
2022-11-16T14:03:52.749Z,14.85
2022-11-16T14:06:19.401Z,14.85
2022-11-16T14:08:50.260Z,14.83
2022-11-16T14:11:36.090Z,14.89
2022-11-16T14:14:12.180Z,14.97
2022-11-16T14:16:47.567Z,14.93
2022-11-16T14:19:49.357Z,15.01
2022-11-16T14:22:34.651Z,14.98
2022-11-16T14:25:08.220Z,14.97
2022-11-16T14:27:55.633Z,14.96
2022-11-16T14:30:31.395Z,14.88
2022-11-16T14:32:58.878Z,14.85
2022-11-16T14:35:39.585Z,14.83
2022-11-16T14:38:30.899Z,14.84
2022-11-16T14:41:00.220Z,14.74
2022-11-16T14:43:39.707Z,14.61
2022-11-16T14:46:17.863Z,14.33
2022-11-16T14:48:46.359Z,14.28
2022-11-16T14:51:21.667Z,14.09
2022-11-16T14:53:53.905Z,13.93
2022-11-16T14:56:20.907Z,13.61
2022-11-16T14:58:56.725Z,13.52
2022-11-16T15:01:31.865Z,13.39
2022-11-16T15:04:09.403Z,13.11
2022-11-16T15:06:44.780Z,12.97
2022-11-16T15:09:34.354Z,12.56
2022-11-16T15:12:22.904Z,12.40
2022-11-16T15:14:58.034Z,12.20
2022-11-16T15:17:31.860Z,12.09
2022-11-16T15:20:11.063Z,11.89
2022-11-16T15:22:42.426Z,11.69
2022-11-16T15:25:41.274Z,11.48
2022-11-16T15:28:26.221Z,11.34
2022-11-16T15:30:59.017Z,10.67
2022-11-16T15:33:38.656Z,10.71
2022-11-16T15:36:39.132Z,10.58
2022-11-16T15:39:12.618Z,10.42
2022-11-16T15:41:40.041Z,10.36
2022-11-16T15:44:14.651Z,10.19
2022-11-16T15:46:45.370Z,10.11
2022-11-16T15:49:29.217Z,9.89
2022-11-16T15:51:58.707Z,9.83
2022-11-16T15:54:51.501Z,9.63
2022-11-16T15:57:20.355Z,9.55
2022-11-16T15:59:55.613Z,9.44
2022-11-16T16:02:27.761Z,9.30
2022-11-16T16:04:54.510Z,9.21
2022-11-16T16:07:42.473Z,9.05
2022-11-16T16:10:23.532Z,8.90
2022-11-16T16:12:57.956Z,8.73
2022-11-16T16:15:34.285Z,8.62
2022-11-16T16:18:03.513Z,8.62
2022-11-16T16:20:32.275Z,8.46
2022-11-16T16:23:11.863Z,8.38
2022-11-16T16:25:38.643Z,8.41
2022-11-16T16:28:05.447Z,8.29
2022-11-16T16:30:34.726Z,8.08
2022-11-16T16:33:02.351Z,8.07
2022-11-16T16:35:29.284Z,7.87
2022-11-16T16:38:01.385Z,7.87
2022-11-16T16:40:29.305Z,7.80
2022-11-16T16:42:56.988Z,7.69
2022-11-16T16:45:34.719Z,7.62
2022-11-16T16:48:01.445Z,7.56
2022-11-16T16:50:29.003Z,7.55
2022-11-16T16:52:55.740Z,7.42
2022-11-16T16:55:22.453Z,7.38
2022-11-16T16:57:49.201Z,7.34
2022-11-16T17:00:16.857Z,7.31
2022-11-16T17:02:43.828Z,7.14
2022-11-16T17:05:10.632Z,7.14
2022-11-16T17:07:37.422Z,7.03
2022-11-16T17:10:04.722Z,6.93
2022-11-16T17:12:31.432Z,6.90
2022-11-16T17:14:58.297Z,6.86
2022-11-16T17:17:25.072Z,6.71
2022-11-16T17:19:52.427Z,6.70
2022-11-16T17:22:20.998Z,6.69
2022-11-16T17:24:47.811Z,6.56
2022-11-16T17:27:14.549Z,6.54
2022-11-16T17:29:41.279Z,6.46
2022-11-16T17:32:08.163Z,6.40
2022-11-16T17:34:34.882Z,6.37
2022-11-16T17:37:01.694Z,6.25
2022-11-16T17:39:28.439Z,6.07
2022-11-16T17:41:55.333Z,5.93
2022-11-16T17:44:22.452Z,6.02
2022-11-16T17:46:49.760Z,6.06
2022-11-16T17:49:16.536Z,5.97
2022-11-16T17:51:43.231Z,5.97
2022-11-16T17:54:10.043Z,5.88
2022-11-16T17:56:36.810Z,5.74
2022-11-16T17:59:03.864Z,5.75
2022-11-16T18:01:31.546Z,5.71
2022-11-16T18:04:01.132Z,5.67
2022-11-16T18:06:27.885Z,5.56
2022-11-16T18:08:54.775Z,5.46
2022-11-16T18:11:24.971Z,5.37
2022-11-16T18:13:57.944Z,5.40
2022-11-16T18:16:30.206Z,5.38
2022-11-16T18:19:06.009Z,5.21
2022-11-16T18:21:39.664Z,5.12
2022-11-16T18:24:07.334Z,5.16
2022-11-16T18:26:34.160Z,5.07
2022-11-16T18:29:00.923Z,4.97
2022-11-16T18:31:27.679Z,4.90
2022-11-16T18:33:54.412Z,4.95
2022-11-16T18:36:22.866Z,4.83
2022-11-16T18:38:49.935Z,4.90
2022-11-16T18:41:19.610Z,4.88
2022-11-16T18:43:56.045Z,4.77
2022-11-16T18:46:31.027Z,4.82
2022-11-16T18:48:58.510Z,4.58
2022-11-16T18:51:27.664Z,4.57
2022-11-16T18:53:55.439Z,4.47
2022-11-16T18:56:22.979Z,4.44
2022-11-16T18:58:51.224Z,4.55
2022-11-16T19:01:22.355Z,4.31
2022-11-16T19:03:49.607Z,4.31
2022-11-16T19:06:18.014Z,4.30
2022-11-16T19:08:50.493Z,4.35
2022-11-16T19:11:20.722Z,4.21
2022-11-16T19:13:54.437Z,4.27
2022-11-16T19:16:22.064Z,4.27
2022-11-16T19:18:48.905Z,4.23
2022-11-16T19:21:18.767Z,4.23
2022-11-16T19:23:48.486Z,4.14
2022-11-16T19:26:18.752Z,4.06
2022-11-16T19:28:48.176Z,4.05
2022-11-16T19:31:20.264Z,3.88
2022-11-16T19:33:47.436Z,3.92
2022-11-16T19:36:17.401Z,3.87
2022-11-16T19:38:47.416Z,3.82
2022-11-16T19:41:16.632Z,3.77
2022-11-16T19:43:43.542Z,3.70
2022-11-16T19:46:16.603Z,3.60
2022-11-16T19:48:45.845Z,3.68
2022-11-16T19:51:19.461Z,3.64
2022-11-16T19:53:46.569Z,3.49
2022-11-16T19:56:16.361Z,3.47
2022-11-16T19:58:43.584Z,3.42
2022-11-16T20:01:17.556Z,3.11
2022-11-16T20:03:45.973Z,3.26
2022-11-16T20:06:22.577Z,3.19
2022-11-16T20:09:00.494Z,3.14
2022-11-16T20:11:33.780Z,3.13
2022-11-16T20:14:01.941Z,3.17
2022-11-16T20:16:38.362Z,3.10
2022-11-16T20:19:10.448Z,3.14
2022-11-16T20:21:42.215Z,3.03
2022-11-16T20:24:14.767Z,3.13
2022-11-16T20:26:45.060Z,3.06
2022-11-16T20:29:16.560Z,3.12
2022-11-16T20:31:45.421Z,3.02
2022-11-16T20:34:17.186Z,3.13
2022-11-16T20:36:46.833Z,3.09
2022-11-16T20:39:19.167Z,3.21
2022-11-16T20:41:46.907Z,3.21
2022-11-16T20:44:22.345Z,3.20
2022-11-16T20:46:52.267Z,3.19
2022-11-16T20:49:19.096Z,3.21
2022-11-16T20:51:47.738Z,3.18
2022-11-16T20:54:14.779Z,3.25
2022-11-16T20:56:41.589Z,3.14
2022-11-16T20:59:08.306Z,3.08
2022-11-16T21:01:35.191Z,3.03
2022-11-16T21:04:04.918Z,3.10
2022-11-16T21:06:32.839Z,3.13
2022-11-16T21:09:00.380Z,3.10
2022-11-16T21:11:30.642Z,3.00
2022-11-16T21:14:16.079Z,2.99
2022-11-16T21:16:43.465Z,2.90
2022-11-16T21:19:11.549Z,2.93
2022-11-16T21:21:40.494Z,2.94
2022-11-16T21:24:09.119Z,2.97
2022-11-16T21:26:37.367Z,2.96
2022-11-16T21:29:04.751Z,2.81
2022-11-16T21:31:34.968Z,2.78
2022-11-16T21:34:02.498Z,2.87
2022-11-16T21:36:31.819Z,2.94
2022-11-16T21:38:58.715Z,2.97
2022-11-16T21:41:26.632Z,3.01
2022-11-16T21:43:53.685Z,3.08
2022-11-16T21:46:24.956Z,3.09
2022-11-16T21:48:53.863Z,3.03
2022-11-16T21:51:22.871Z,3.11
2022-11-16T21:53:49.631Z,3.08
2022-11-16T21:56:19.361Z,3.08
2022-11-16T21:58:46.684Z,3.10
2022-11-16T22:01:16.282Z,3.02
2022-11-16T22:03:43.343Z,3.03
2022-11-16T22:06:33.296Z,3.02
2022-11-16T22:09:00.676Z,3.04
2022-11-16T22:11:27.540Z,3.05
2022-11-16T22:13:54.245Z,3.11
2022-11-16T22:16:23.454Z,3.06
2022-11-16T22:18:50.756Z,3.14
2022-11-16T22:21:17.600Z,3.17
2022-11-16T22:23:44.399Z,3.18
2022-11-16T22:26:14.662Z,3.15
2022-11-16T22:28:41.641Z,3.16
2022-11-16T22:31:14.726Z,3.17
2022-11-16T22:33:42.065Z,2.95
2022-11-16T22:36:13.393Z,3.01
2022-11-16T22:38:40.164Z,3.08
2022-11-16T22:41:06.908Z,3.06
2022-11-16T22:43:34.327Z,3.10
2022-11-16T22:46:04.545Z,3.09
2022-11-16T22:48:38.203Z,3.15
2022-11-16T22:51:20.573Z,3.17
2022-11-16T22:53:47.340Z,3.12
2022-11-16T22:56:14.381Z,3.25
2022-11-16T22:58:41.174Z,3.26
2022-11-16T23:01:09.380Z,3.31
2022-11-16T23:03:37.562Z,3.39
2022-11-16T23:06:06.156Z,3.43
2022-11-16T23:08:34.072Z,3.40
2022-11-16T23:11:25.453Z,3.45
2022-11-16T23:14:12.992Z,3.44
2022-11-16T23:16:41.164Z,3.52
2022-11-16T23:19:33.046Z,3.56
2022-11-16T23:22:18.266Z,3.50
2022-11-16T23:25:04.393Z,3.63
2022-11-16T23:27:49.045Z,3.59
2022-11-16T23:30:16.084Z,3.65
2022-11-16T23:32:42.964Z,3.69
2022-11-16T23:35:10.481Z,3.74
2022-11-16T23:38:06.217Z,3.74
2022-11-16T23:40:40.334Z,3.77
2022-11-16T23:43:28.951Z,3.83
2022-11-16T23:45:55.763Z,3.72
2022-11-16T23:48:22.530Z,3.87
2022-11-16T23:50:49.248Z,3.86
2022-11-16T23:53:15.994Z,3.92
2022-11-16T23:55:42.765Z,3.94
2022-11-16T23:58:14.642Z,4.02
